createdAt,value
2023-06-27T00:00:12.825Z,69.67
2023-06-27T00:02:39.417Z,68.76
2023-06-27T00:05:06.229Z,70.07
2023-06-27T00:07:32.737Z,71.74
2023-06-27T00:09:59.215Z,71.15
2023-06-27T00:12:25.769Z,71.45
2023-06-27T00:14:52.187Z,72.72
2023-06-27T00:17:18.593Z,74.00
2023-06-27T00:19:47.799Z,73.39
2023-06-27T00:22:15.240Z,73.79
2023-06-27T00:24:41.681Z,75.32
2023-06-27T00:27:08.450Z,75.19
2023-06-27T00:29:34.824Z,75.19
2023-06-27T00:32:01.177Z,75.13
2023-06-27T00:34:27.750Z,74.80
2023-06-27T00:36:54.541Z,76.21
2023-06-27T00:39:21.926Z,77.48
2023-06-27T00:41:48.491Z,77.32
2023-06-27T00:44:15.165Z,75.31
2023-06-27T00:46:41.733Z,76.25
2023-06-27T00:49:08.817Z,76.90
2023-06-27T00:51:35.203Z,77.28
2023-06-27T00:54:01.595Z,77.85
2023-06-27T00:56:28.359Z,79.27
2023-06-27T00:58:55.024Z,80.21
2023-06-27T01:01:21.399Z,80.82
2023-06-27T01:03:48.442Z,81.07
2023-06-27T01:06:33.444Z,80.77
2023-06-27T01:09:05.120Z,80.63
2023-06-27T01:11:36.458Z,79.93
2023-06-27T01:14:03.909Z,79.33
2023-06-27T01:16:30.708Z,80.11
2023-06-27T01:18:57.756Z,79.96
2023-06-27T01:21:25.418Z,79.74
2023-06-27T01:23:55.452Z,80.31
2023-06-27T01:26:22.219Z,79.80
2023-06-27T01:28:48.695Z,80.41
2023-06-27T01:31:17.582Z,80.64
2023-06-27T01:33:52.609Z,80.43
2023-06-27T01:36:27.974Z,81.90
2023-06-27T01:38:54.319Z,83.01
2023-06-27T01:41:21.676Z,82.08
2023-06-27T01:43:48.095Z,83.59
2023-06-27T01:46:14.599Z,82.44
2023-06-27T01:48:42.020Z,83.16
2023-06-27T01:51:09.079Z,82.60
2023-06-27T01:53:35.754Z,82.88
2023-06-27T01:56:02.112Z,82.76
2023-06-27T01:58:28.520Z,82.67
2023-06-27T02:00:54.977Z,82.33
2023-06-27T02:03:21.458Z,83.04
2023-06-27T02:05:47.949Z,83.56
2023-06-27T02:08:14.311Z,84.44
2023-06-27T02:10:40.664Z,83.94
2023-06-27T02:13:07.555Z,84.44
2023-06-27T02:15:33.915Z,85.46
2023-06-27T02:18:00.741Z,85.38
2023-06-27T02:20:27.383Z,85.40
2023-06-27T02:22:53.781Z,82.99
2023-06-27T02:25:20.124Z,82.41
2023-06-27T02:27:46.507Z,83.34
2023-06-27T02:30:13.135Z,83.79
2023-06-27T02:32:39.568Z,84.34
2023-06-27T02:35:06.210Z,84.52
2023-06-27T02:37:32.560Z,84.93
2023-06-27T02:39:58.922Z,84.91
2023-06-27T02:42:25.339Z,85.37
2023-06-27T02:44:51.706Z,85.44
2023-06-27T02:47:19.451Z,85.81
2023-06-27T02:49:45.920Z,86.02
2023-06-27T02:52:12.271Z,86.32
2023-06-27T02:54:38.619Z,86.23
2023-06-27T02:57:05.176Z,86.78
2023-06-27T02:59:31.565Z,86.43
2023-06-27T03:01:58.018Z,86.26
2023-06-27T03:04:25.225Z,86.59
2023-06-27T03:06:51.769Z,86.53
2023-06-27T03:09:19.292Z,86.66
2023-06-27T03:11:46.092Z,86.79
2023-06-27T03:14:12.534Z,87.21
2023-06-27T03:16:38.950Z,87.37
2023-06-27T03:19:05.409Z,87.18
2023-06-27T03:21:31.770Z,87.16
2023-06-27T03:23:58.116Z,87.08
2023-06-27T03:26:29.018Z,87.99
2023-06-27T03:28:55.817Z,87.06
2023-06-27T03:31:22.302Z,87.22
2023-06-27T03:33:48.735Z,86.63
2023-06-27T03:36:15.102Z,86.58
2023-06-27T03:38:41.515Z,86.17
2023-06-27T03:41:07.951Z,86.71
2023-06-27T03:43:34.366Z,87.46
2023-06-27T03:46:00.763Z,87.21
2023-06-27T03:48:27.196Z,87.91
2023-06-27T03:50:53.612Z,87.70
2023-06-27T03:53:20.006Z,87.68
2023-06-27T03:55:46.396Z,88.08
2023-06-27T03:58:12.776Z,87.80
2023-06-27T04:00:39.207Z,88.14
2023-06-27T04:03:05.681Z,87.87
2023-06-27T04:05:32.100Z,87.84
2023-06-27T04:07:58.495Z,87.80
2023-06-27T04:10:24.920Z,88.80
2023-06-27T04:12:51.295Z,88.21
2023-06-27T04:15:17.657Z,88.05
2023-06-27T04:17:44.973Z,87.80
2023-06-27T04:20:12.883Z,87.83
2023-06-27T04:22:39.517Z,87.21
2023-06-27T04:25:09.218Z,87.70
2023-06-27T04:27:35.703Z,86.51
2023-06-27T04:30:02.074Z,86.51
2023-06-27T04:32:28.537Z,85.74
2023-06-27T04:34:58.617Z,85.62
2023-06-27T04:37:25.079Z,86.16
2023-06-27T04:39:54.244Z,85.60
2023-06-27T04:42:20.683Z,86.14
2023-06-27T04:44:47.077Z,85.24
2023-06-27T04:47:13.452Z,85.44
2023-06-27T04:49:39.860Z,86.43
2023-06-27T04:52:06.880Z,86.48
2023-06-27T04:54:33.379Z,87.10
2023-06-27T04:57:11.982Z,86.36
2023-06-27T04:59:40.115Z,86.49
2023-06-27T05:02:06.531Z,86.73
2023-06-27T05:04:33.027Z,86.78
2023-06-27T05:06:59.496Z,86.67
2023-06-27T05:09:25.874Z,86.47
2023-06-27T05:11:52.272Z,85.70
2023-06-27T05:14:19.793Z,85.86
2023-06-27T05:16:46.209Z,86.56
2023-06-27T05:19:12.590Z,86.56
2023-06-27T05:21:39.035Z,86.32
2023-06-27T05:24:08.204Z,85.63
2023-06-27T05:26:35.085Z,85.92
2023-06-27T05:29:01.903Z,85.72
2023-06-27T05:31:28.815Z,85.67
2023-06-27T05:33:55.591Z,85.69
2023-06-27T05:36:22.034Z,86.01
2023-06-27T05:38:49.065Z,85.89
2023-06-27T05:41:19.104Z,86.79
2023-06-27T05:43:46.559Z,86.75
2023-06-27T05:46:13.021Z,86.36
2023-06-27T05:48:39.427Z,85.58
2023-06-27T05:51:05.867Z,85.25
2023-06-27T05:53:32.245Z,85.74
2023-06-27T05:55:58.617Z,85.11
2023-06-27T05:58:25.134Z,85.03
2023-06-27T06:00:51.710Z,84.59
2023-06-27T06:03:18.180Z,84.99
2023-06-27T06:05:44.619Z,85.39
2023-06-27T06:08:10.973Z,84.69
2023-06-27T06:10:37.336Z,84.62
2023-06-27T06:13:03.754Z,84.80
2023-06-27T06:15:30.166Z,84.61
2023-06-27T06:17:56.648Z,84.80
2023-06-27T06:20:23.102Z,84.84
2023-06-27T06:22:49.492Z,84.87
2023-06-27T06:25:15.881Z,84.87
2023-06-27T06:27:42.370Z,84.18
2023-06-27T06:30:09.620Z,83.83
2023-06-27T06:32:36.305Z,83.90
2023-06-27T06:35:02.797Z,84.10
2023-06-27T06:37:29.307Z,83.34
2023-06-27T06:39:55.657Z,83.52
2023-06-27T06:42:22.170Z,83.10
2023-06-27T06:44:49.616Z,83.23
2023-06-27T06:47:16.006Z,82.69
2023-06-27T06:49:42.391Z,82.01
2023-06-27T06:52:08.754Z,80.94
2023-06-27T06:54:35.149Z,81.55
2023-06-27T06:57:01.606Z,81.34
2023-06-27T06:59:27.992Z,81.23
2023-06-27T07:01:54.344Z,80.36
2023-06-27T07:04:20.814Z,79.92
2023-06-27T07:06:49.524Z,78.93
2023-06-27T07:09:15.982Z,77.87
2023-06-27T07:11:42.392Z,77.13
2023-06-27T07:14:08.759Z,76.54
2023-06-27T07:16:35.120Z,76.32
2023-06-27T07:19:02.383Z,75.15
2023-06-27T07:21:28.756Z,74.04
2023-06-27T07:23:55.166Z,74.47
2023-06-27T07:26:21.605Z,74.62
2023-06-27T07:28:48.020Z,73.57
2023-06-27T07:31:14.414Z,73.38
2023-06-27T07:33:40.832Z,70.69
2023-06-27T07:36:07.220Z,70.09
2023-06-27T07:38:33.592Z,70.97
2023-06-27T07:41:00.120Z,70.34
2023-06-27T07:43:26.500Z,70.05
2023-06-27T07:45:52.883Z,67.62
2023-06-27T07:48:19.373Z,69.38
2023-06-27T07:50:45.773Z,69.79
2023-06-27T07:53:12.143Z,70.21
2023-06-27T07:55:38.588Z,69.79
2023-06-27T07:58:05.067Z,69.65
2023-06-27T08:00:32.090Z,68.74
2023-06-27T08:02:58.637Z,68.69
2023-06-27T08:05:25.067Z,68.25
2023-06-27T08:07:51.471Z,67.84
2023-06-27T08:10:17.902Z,65.17
2023-06-27T08:12:44.268Z,65.74
2023-06-27T08:15:10.772Z,64.53
2023-06-27T08:17:37.271Z,65.33
2023-06-27T08:20:04.768Z,64.68
2023-06-27T08:22:31.155Z,64.13
2023-06-27T08:24:57.580Z,62.19
2023-06-27T08:27:24.174Z,62.47
2023-06-27T08:29:50.535Z,62.58
2023-06-27T08:32:16.977Z,62.78
2023-06-27T08:34:43.455Z,64.08
2023-06-27T08:37:11.083Z,64.37
2023-06-27T08:39:38.022Z,63.67
2023-06-27T08:42:04.468Z,62.67
2023-06-27T08:44:30.854Z,60.08
2023-06-27T08:46:57.983Z,60.78
2023-06-27T08:49:25.447Z,59.64
2023-06-27T08:51:51.990Z,60.46
2023-06-27T08:54:23.649Z,60.41
2023-06-27T08:56:50.103Z,60.78
2023-06-27T08:59:17.907Z,60.13
2023-06-27T09:01:44.426Z,60.68
2023-06-27T09:04:11.272Z,60.87
2023-06-27T09:06:38.934Z,59.94
2023-06-27T09:09:06.239Z,59.67
2023-06-27T09:11:32.635Z,59.97
2023-06-27T09:13:58.996Z,60.56
2023-06-27T09:16:25.489Z,60.09
2023-06-27T09:18:53.403Z,60.10
2023-06-27T09:21:22.042Z,58.54
2023-06-27T09:23:50.474Z,57.89
2023-06-27T09:26:16.924Z,56.82
2023-06-27T09:28:50.447Z,56.63
2023-06-27T09:31:20.417Z,57.05
2023-06-27T09:33:48.595Z,55.79
2023-06-27T09:39:07.984Z,56.26
2023-06-27T09:41:42.344Z,54.99
2023-06-27T09:44:12.595Z,55.26
2023-06-27T09:46:39.009Z,56.45
2023-06-27T09:49:08.864Z,56.50
2023-06-27T09:51:35.257Z,57.06
2023-06-27T09:54:02.068Z,55.41
2023-06-27T09:56:32.160Z,56.14
2023-06-27T10:01:55.301Z,57.87
2023-06-27T10:04:38.566Z,58.84
2023-06-27T10:07:08.298Z,58.09
2023-06-27T10:09:35.577Z,59.82
2023-06-27T10:12:01.993Z,59.73
2023-06-27T10:14:28.418Z,60.23
2023-06-27T10:16:55.414Z,59.24
2023-06-27T10:19:21.777Z,60.64
2023-06-27T10:21:49.507Z,59.56
2023-06-27T10:24:15.892Z,59.39
2023-06-27T10:26:49.518Z,58.76
2023-06-27T10:29:16.036Z,59.92
2023-06-27T10:31:46.014Z,59.94
2023-06-27T10:34:22.208Z,60.66
2023-06-27T10:37:04.645Z,59.78
2023-06-27T10:39:32.170Z,57.66
2023-06-27T10:42:16.236Z,58.02
2023-06-27T10:44:54.787Z,57.29
2023-06-27T10:47:21.096Z,58.45
2023-06-27T10:49:48.305Z,58.60
2023-06-27T10:52:24.561Z,57.91
2023-06-27T10:55:14.276Z,59.64
2023-06-27T10:57:43.719Z,58.78
2023-06-27T11:00:13.022Z,61.63
2023-06-27T11:02:41.920Z,64.31
2023-06-27T11:05:17.689Z,69.22
2023-06-27T11:07:53.983Z,71.52
2023-06-27T11:10:23.932Z,72.24
2023-06-27T11:12:51.776Z,72.65
2023-06-27T11:15:18.652Z,73.37
2023-06-27T11:17:46.014Z,72.59
2023-06-27T11:20:15.429Z,72.11
2023-06-27T11:22:41.821Z,72.93
2023-06-27T11:25:12.596Z,72.01
2023-06-27T11:27:38.965Z,71.73
2023-06-27T11:30:05.668Z,70.85
2023-06-27T11:32:33.162Z,71.80
2023-06-27T11:34:59.764Z,73.77
2023-06-27T11:37:26.846Z,72.18
2023-06-27T11:39:54.880Z,72.58
2023-06-27T11:42:37.005Z,70.94
2023-06-27T11:45:04.322Z,71.46
2023-06-27T11:47:30.753Z,71.62
2023-06-27T11:50:24.743Z,73.65
2023-06-27T11:52:51.438Z,75.74
2023-06-27T11:55:17.964Z,75.63
2023-06-27T11:57:53.557Z,77.04
2023-06-27T12:00:27.494Z,77.60
2023-06-27T12:02:55.046Z,78.72
2023-06-27T12:05:22.064Z,78.09
2023-06-27T12:07:56.021Z,78.37
2023-06-27T12:10:22.398Z,78.43
2023-06-27T12:12:49.993Z,77.67
2023-06-27T12:15:16.601Z,78.54
2023-06-27T12:17:56.270Z,77.67
2023-06-27T12:20:23.233Z,78.02
2023-06-27T12:22:49.641Z,76.90
2023-06-27T12:25:16.060Z,76.93
2023-06-27T12:27:42.564Z,77.04
2023-06-27T12:30:10.975Z,76.91
2023-06-27T12:32:37.576Z,77.83
2023-06-27T12:35:04.086Z,77.78
2023-06-27T12:37:34.487Z,78.18
2023-06-27T12:40:02.423Z,78.39
2023-06-27T12:42:28.832Z,78.28
2023-06-27T12:44:56.209Z,79.01
2023-06-27T12:47:22.650Z,77.20
2023-06-27T12:49:49.062Z,76.93
2023-06-27T12:52:15.462Z,75.82
2023-06-27T12:54:41.895Z,76.37
2023-06-27T12:57:08.397Z,76.02
2023-06-27T12:59:35.307Z,77.78
2023-06-27T13:02:01.789Z,78.80
2023-06-27T13:04:31.553Z,78.23
2023-06-27T13:07:01.114Z,79.05
2023-06-27T13:09:27.689Z,80.47
2023-06-27T13:11:54.762Z,80.89
2023-06-27T13:14:21.611Z,81.25
2023-06-27T13:16:48.013Z,81.37
2023-06-27T13:19:14.540Z,82.07
2023-06-27T13:21:40.944Z,81.81
2023-06-27T13:24:07.789Z,81.72
2023-06-27T13:26:35.243Z,82.50
2023-06-27T13:29:01.627Z,82.21
2023-06-27T13:31:28.597Z,81.91
2023-06-27T13:33:55.138Z,82.08
2023-06-27T13:36:21.508Z,81.06
2023-06-27T13:38:47.919Z,79.96
2023-06-27T13:41:14.449Z,80.71
2023-06-27T13:43:41.166Z,80.52
2023-06-27T13:46:07.745Z,81.09
2023-06-27T13:48:34.284Z,81.50
2023-06-27T13:51:00.788Z,81.29
2023-06-27T13:53:27.178Z,82.28
2023-06-27T13:55:53.669Z,82.16
2023-06-27T13:58:20.139Z,81.37
2023-06-27T14:00:49.885Z,82.74
2023-06-27T14:03:16.461Z,81.82
2023-06-27T14:05:43.048Z,80.73
2023-06-27T14:08:09.541Z,80.71
2023-06-27T14:10:38.030Z,81.45
2023-06-27T14:13:05.190Z,79.38
2023-06-27T14:15:31.901Z,78.65
2023-06-27T14:17:58.374Z,77.91
2023-06-27T14:20:24.862Z,77.15
2023-06-27T14:22:51.561Z,75.32
2023-06-27T14:25:17.958Z,75.90
2023-06-27T14:27:44.355Z,75.66
2023-06-27T14:30:10.871Z,75.29
2023-06-27T14:32:37.334Z,75.83
2023-06-27T14:35:03.874Z,75.26
2023-06-27T14:37:30.266Z,74.71
2023-06-27T14:39:56.713Z,74.65
2023-06-27T14:42:23.130Z,74.76
2023-06-27T14:44:49.605Z,74.74
2023-06-27T14:47:16.117Z,74.77
2023-06-27T14:49:42.557Z,74.51
2023-06-27T14:52:09.005Z,74.91
2023-06-27T14:54:35.475Z,74.40
2023-06-27T14:57:02.378Z,75.17
2023-06-27T14:59:30.055Z,74.45
2023-06-27T15:01:56.432Z,74.30
2023-06-27T15:04:24.165Z,74.77
2023-06-27T15:06:50.624Z,74.19
2023-06-27T15:09:17.348Z,73.29
2023-06-27T15:11:43.701Z,73.11
2023-06-27T15:14:10.073Z,72.76
2023-06-27T15:16:36.502Z,72.33
2023-06-27T15:19:02.880Z,72.56
2023-06-27T15:21:29.288Z,72.50
2023-06-27T15:23:55.751Z,71.97
2023-06-27T15:26:22.141Z,72.04
2023-06-27T15:28:49.463Z,71.53
2023-06-27T15:31:16.110Z,71.31
2023-06-27T15:33:42.584Z,71.37
2023-06-27T15:36:08.968Z,71.63
2023-06-27T15:38:35.503Z,71.74
2023-06-27T15:41:01.969Z,71.89
2023-06-27T15:43:28.361Z,72.72
2023-06-27T15:45:54.836Z,70.94
2023-06-27T15:48:21.283Z,70.92
2023-06-27T15:50:47.668Z,71.55
2023-06-27T15:53:14.103Z,69.55
2023-06-27T15:55:40.752Z,68.58
2023-06-27T15:58:07.189Z,68.53
2023-06-27T16:00:33.567Z,69.45
2023-06-27T16:03:00.129Z,68.51
2023-06-27T16:05:26.602Z,67.53
2023-06-27T16:07:52.978Z,67.59
2023-06-27T16:10:19.373Z,67.05
2023-06-27T16:12:45.808Z,67.67
2023-06-27T16:15:12.199Z,67.12
2023-06-27T16:17:38.639Z,67.80
2023-06-27T16:20:05.934Z,68.37
2023-06-27T16:22:32.432Z,66.33
2023-06-27T16:25:00.435Z,67.21
2023-06-27T16:27:26.796Z,67.53
2023-06-27T16:29:53.193Z,67.40
2023-06-27T16:32:19.564Z,66.19
2023-06-27T16:34:47.232Z,65.33
2023-06-27T16:37:13.651Z,65.48
2023-06-27T16:39:40.205Z,65.86
2023-06-27T16:42:07.906Z,66.21
2023-06-27T16:44:34.359Z,65.57
2023-06-27T16:47:00.714Z,66.09
2023-06-27T16:49:28.008Z,65.65
2023-06-27T16:51:54.530Z,65.89
2023-06-27T16:54:23.842Z,65.67
2023-06-27T16:56:50.398Z,64.41
2023-06-27T16:59:17.611Z,65.35
2023-06-27T17:01:46.926Z,65.61
2023-06-27T17:04:15.330Z,65.25
2023-06-27T17:06:41.784Z,65.27
2023-06-27T17:09:08.524Z,64.93
2023-06-27T17:11:35.004Z,65.74
2023-06-27T17:14:01.445Z,66.06
2023-06-27T17:16:27.813Z,66.52
2023-06-27T17:18:54.190Z,65.52
2023-06-27T17:21:20.680Z,65.88
2023-06-27T17:23:47.629Z,65.88
2023-06-27T17:26:13.999Z,67.07
2023-06-27T17:28:40.467Z,65.17
2023-06-27T17:31:06.956Z,65.91
2023-06-27T17:33:33.434Z,66.43
2023-06-27T17:35:59.858Z,64.98
2023-06-27T17:38:26.274Z,65.38
2023-06-27T17:40:52.652Z,65.72
2023-06-27T17:43:19.907Z,65.24
2023-06-27T17:45:46.306Z,65.69
2023-06-27T17:48:12.704Z,65.43
2023-06-27T17:50:40.226Z,65.50
2023-06-27T17:53:07.060Z,65.56
2023-06-27T17:55:33.552Z,65.87
2023-06-27T17:58:00.028Z,67.05
2023-06-27T18:00:26.403Z,65.52
2023-06-27T18:02:53.005Z,66.78
2023-06-27T18:05:19.554Z,65.92
2023-06-27T18:07:45.978Z,65.89
2023-06-27T18:10:13.482Z,66.85
2023-06-27T18:12:40.011Z,65.32
2023-06-27T18:15:06.712Z,65.98
2023-06-27T18:17:33.113Z,66.08
2023-06-27T18:19:59.580Z,66.38
2023-06-27T18:22:26.661Z,66.64
2023-06-27T18:24:53.410Z,66.18
2023-06-27T18:27:24.473Z,66.71
2023-06-27T18:29:50.943Z,66.82
2023-06-27T18:32:17.320Z,66.90
2023-06-27T18:34:44.315Z,66.81
2023-06-27T18:37:10.685Z,67.23
2023-06-27T18:39:37.379Z,67.41
2023-06-27T18:42:04.029Z,67.51
2023-06-27T18:44:31.509Z,67.45
2023-06-27T18:46:57.965Z,67.69
2023-06-27T18:49:24.382Z,67.61
2023-06-27T18:51:50.787Z,67.67
2023-06-27T18:54:17.190Z,67.44
2023-06-27T18:56:43.673Z,67.45
2023-06-27T18:59:10.140Z,67.42
2023-06-27T19:01:36.605Z,67.76
2023-06-27T19:04:03.201Z,67.38
2023-06-27T19:06:30.292Z,67.17
2023-06-27T19:08:56.788Z,67.37
2023-06-27T19:11:23.200Z,67.42
2023-06-27T19:13:50.819Z,68.30
2023-06-27T19:16:17.376Z,68.14
2023-06-27T19:18:44.272Z,68.20
2023-06-27T19:21:14.251Z,67.91
2023-06-27T19:23:40.610Z,68.01
2023-06-27T19:26:08.651Z,67.94
2023-06-27T19:28:36.780Z,68.13
2023-06-27T19:31:03.470Z,68.08
2023-06-27T19:33:30.244Z,68.36
2023-06-27T19:35:56.651Z,69.48
2023-06-27T19:38:23.123Z,69.18
2023-06-27T19:40:49.601Z,69.70
2023-06-27T19:43:16.308Z,69.28
2023-06-27T19:45:42.717Z,69.29
2023-06-27T19:48:10.018Z,69.38
2023-06-27T19:50:36.503Z,69.67
2023-06-27T19:53:02.946Z,69.65
2023-06-27T19:55:29.392Z,70.05
2023-06-27T19:57:59.000Z,69.91
2023-06-27T20:00:25.733Z,69.32
2023-06-27T20:02:52.319Z,69.32
2023-06-27T20:05:18.798Z,69.28
2023-06-27T20:07:45.332Z,69.03
2023-06-27T20:10:14.923Z,69.76
2023-06-27T20:12:41.720Z,69.59
2023-06-27T20:15:08.385Z,69.43
2023-06-27T20:17:34.863Z,69.98
2023-06-27T20:20:03.162Z,69.70
2023-06-27T20:22:29.557Z,69.92
2023-06-27T20:24:56.292Z,70.16
2023-06-27T20:27:22.688Z,70.29
2023-06-27T20:29:49.082Z,71.36
2023-06-27T20:32:15.503Z,71.00
2023-06-27T20:34:42.285Z,70.50
2023-06-27T20:37:08.717Z,70.61
2023-06-27T20:39:35.200Z,70.77
2023-06-27T20:42:01.663Z,70.54
2023-06-27T20:44:28.078Z,70.75
2023-06-27T20:46:54.477Z,70.66
2023-06-27T20:49:21.054Z,70.89
2023-06-27T20:51:47.462Z,70.96
2023-06-27T20:54:13.901Z,70.48
2023-06-27T20:56:40.349Z,70.77
2023-06-27T20:59:06.853Z,70.66
2023-06-27T21:01:34.176Z,70.13
2023-06-27T21:04:04.561Z,70.42
2023-06-27T21:06:31.090Z,71.17
2023-06-27T21:08:57.518Z,71.14
2023-06-27T21:11:23.891Z,71.46
2023-06-27T21:13:50.713Z,71.03
2023-06-27T21:16:19.273Z,71.32
2023-06-27T21:18:46.877Z,71.10
2023-06-27T21:21:13.268Z,71.02
2023-06-27T21:23:39.686Z,71.39
2023-06-27T21:26:06.103Z,71.32
2023-06-27T21:28:32.495Z,70.90
2023-06-27T21:30:58.967Z,70.96
2023-06-27T21:33:25.512Z,71.71
2023-06-27T21:35:51.890Z,71.35
2023-06-27T21:38:18.295Z,71.08
2023-06-27T21:40:44.793Z,71.18
2023-06-27T21:43:11.238Z,70.81
2023-06-27T21:45:37.906Z,71.04
2023-06-27T21:48:04.437Z,71.08
2023-06-27T21:50:31.081Z,70.96
2023-06-27T21:52:57.553Z,71.54
2023-06-27T21:55:23.935Z,71.24
2023-06-27T21:57:50.301Z,71.10
2023-06-27T22:00:16.888Z,71.04
2023-06-27T22:02:48.996Z,71.33
2023-06-27T22:05:18.612Z,71.59
2023-06-27T22:07:45.433Z,71.82
2023-06-27T22:10:12.018Z,72.07
2023-06-27T22:12:38.492Z,71.80
2023-06-27T22:15:05.263Z,71.38
2023-06-27T22:17:33.324Z,71.07
2023-06-27T22:20:00.161Z,71.52
2023-06-27T22:22:26.587Z,71.49
2023-06-27T22:24:54.656Z,71.77
2023-06-27T22:27:22.745Z,71.64
2023-06-27T22:29:49.186Z,71.67
2023-06-27T22:32:15.610Z,72.20
2023-06-27T22:34:42.042Z,71.76
2023-06-27T22:37:08.450Z,71.88
2023-06-27T22:39:34.918Z,72.37
2023-06-27T22:42:01.359Z,72.77
2023-06-27T22:44:27.710Z,72.36
2023-06-27T22:46:54.150Z,72.43
2023-06-27T22:49:21.081Z,72.18
2023-06-27T22:51:47.478Z,72.43
2023-06-27T22:54:13.850Z,72.48
2023-06-27T22:56:40.265Z,72.57
2023-06-27T22:59:09.464Z,72.57
2023-06-27T23:01:35.828Z,72.76
2023-06-27T23:04:02.263Z,73.41
2023-06-27T23:06:32.313Z,73.02
2023-06-27T23:08:59.414Z,72.55
2023-06-27T23:11:25.998Z,73.17
2023-06-27T23:13:52.372Z,73.33
2023-06-27T23:16:18.847Z,72.94
2023-06-27T23:18:45.296Z,72.78
2023-06-27T23:21:14.333Z,73.17
2023-06-27T23:23:41.298Z,73.79
2023-06-27T23:26:14.264Z,73.70
2023-06-27T23:28:45.713Z,73.44
2023-06-27T23:31:12.319Z,73.99
2023-06-27T23:33:41.281Z,74.28
2023-06-27T23:36:07.695Z,74.28
2023-06-27T23:38:36.754Z,74.41
2023-06-27T23:41:03.438Z,74.60
2023-06-27T23:43:29.833Z,74.68
2023-06-27T23:45:56.464Z,75.07
2023-06-27T23:48:23.562Z,75.30
2023-06-27T23:50:49.976Z,75.59
2023-06-27T23:53:16.382Z,75.46
2023-06-27T23:55:42.773Z,75.45
2023-06-27T23:58:09.146Z,75.81
